createdAt,value
2019-03-29T00:00:25.372Z,66.35
2019-03-29T00:01:25.383Z,66.06
2019-03-29T00:02:25.386Z,66.92
2019-03-29T00:03:25.396Z,66.44
2019-03-29T00:04:25.405Z,66.92
2019-03-29T00:05:25.424Z,66.53
2019-03-29T00:06:25.422Z,66.35
2019-03-29T00:07:38.596Z,66.44
2019-03-29T00:08:25.439Z,66.92
2019-03-29T00:09:25.448Z,66.53
2019-03-29T00:10:25.455Z,66.44
2019-03-29T00:11:25.466Z,66.73
2019-03-29T00:12:25.469Z,65.97
2019-03-29T00:13:25.477Z,66.16
2019-03-29T00:14:25.489Z,65.97
2019-03-29T00:15:25.499Z,65.50
2019-03-29T00:16:26.006Z,65.12
2019-03-29T00:17:25.514Z,65.21
2019-03-29T00:18:25.519Z,64.17
2019-03-29T00:19:25.530Z,63.04
2019-03-29T00:20:25.534Z,62.94
2019-03-29T00:21:25.549Z,63.70
2019-03-29T00:22:25.552Z,63.32
2019-03-29T00:23:25.560Z,62.94
2019-03-29T00:24:25.568Z,62.94
2019-03-29T00:25:25.580Z,62.85
2019-03-29T00:26:25.886Z,62.28
2019-03-29T00:27:25.593Z,62.75
2019-03-29T00:28:25.601Z,62.18
2019-03-29T00:29:25.610Z,62.37
2019-03-29T00:30:25.621Z,62.37
2019-03-29T00:31:25.629Z,62.09
2019-03-29T00:32:25.635Z,61.71
2019-03-29T00:33:25.649Z,62.18
2019-03-29T00:34:25.654Z,61.80
2019-03-29T00:35:25.660Z,61.71
2019-03-29T00:36:25.986Z,61.71
2019-03-29T00:37:25.676Z,61.80
2019-03-29T00:38:25.689Z,62.28
2019-03-29T00:39:25.693Z,62.09
2019-03-29T00:40:25.702Z,62.28
2019-03-29T00:41:25.712Z,61.71
2019-03-29T00:42:25.720Z,61.24
2019-03-29T00:43:25.725Z,60.29
2019-03-29T00:44:26.246Z,59.91
2019-03-29T00:45:25.744Z,60.10
2019-03-29T00:46:25.754Z,59.53
2019-03-29T00:47:25.759Z,59.16
2019-03-29T00:48:25.768Z,58.78
2019-03-29T00:49:25.775Z,59.16
2019-03-29T00:50:25.785Z,59.25
2019-03-29T00:51:25.792Z,58.97
2019-03-29T00:52:25.799Z,59.16
2019-03-29T00:53:25.809Z,59.16
2019-03-29T00:54:25.816Z,59.63
2019-03-29T00:55:25.822Z,59.91
2019-03-29T00:56:25.834Z,59.72
2019-03-29T00:57:25.841Z,59.63
2019-03-29T00:58:25.850Z,59.53
2019-03-29T00:59:25.855Z,59.81
2019-03-29T01:00:25.864Z,59.25
2019-03-29T01:01:26.115Z,59.25
2019-03-29T01:02:25.882Z,59.25
2019-03-29T01:03:25.893Z,59.06
2019-03-29T01:04:25.900Z,58.68
2019-03-29T01:05:25.920Z,58.78
2019-03-29T01:06:25.913Z,59.06
2019-03-29T01:07:25.921Z,59.25
2019-03-29T01:08:25.933Z,59.25
2019-03-29T01:09:25.939Z,58.97
2019-03-29T01:10:25.946Z,59.16
2019-03-29T01:11:25.957Z,59.34
2019-03-29T01:12:25.964Z,58.97
2019-03-29T01:13:25.970Z,58.40
2019-03-29T01:14:25.981Z,58.30
2019-03-29T01:15:25.985Z,58.49
2019-03-29T01:16:26.004Z,58.59
2019-03-29T01:17:26.005Z,58.68
2019-03-29T01:18:26.015Z,58.02
2019-03-29T01:19:26.021Z,58.21
2019-03-29T01:20:26.027Z,58.59
2019-03-29T01:21:26.039Z,58.49
2019-03-29T01:22:26.047Z,58.68
2019-03-29T01:23:26.054Z,58.59
2019-03-29T01:24:26.063Z,58.78
2019-03-29T01:25:26.068Z,59.34
2019-03-29T01:26:26.416Z,59.06
2019-03-29T01:27:26.087Z,59.16
2019-03-29T01:28:26.094Z,59.25
2019-03-29T01:29:26.103Z,58.87
2019-03-29T01:30:26.108Z,59.44
2019-03-29T01:31:26.121Z,59.81
2019-03-29T01:32:26.127Z,59.06
2019-03-29T01:33:26.135Z,58.97
2019-03-29T01:34:26.141Z,59.06
2019-03-29T01:35:26.157Z,59.06
2019-03-29T01:36:26.159Z,59.06
2019-03-29T01:37:26.167Z,58.87
2019-03-29T01:38:26.173Z,59.06
2019-03-29T01:39:26.194Z,58.87
2019-03-29T01:40:26.192Z,58.97
2019-03-29T01:41:26.952Z,58.78
2019-03-29T01:42:26.211Z,58.78
2019-03-29T01:43:26.213Z,58.68
2019-03-29T01:44:26.249Z,58.68
2019-03-29T01:45:26.230Z,58.49
2019-03-29T01:46:26.241Z,58.02
2019-03-29T01:47:26.246Z,57.64
2019-03-29T01:48:26.259Z,56.32
2019-03-29T01:49:26.263Z,55.27
2019-03-29T01:50:26.271Z,55.37
2019-03-29T01:51:26.330Z,54.99
2019-03-29T01:52:26.287Z,55.18
2019-03-29T01:53:26.297Z,55.94
2019-03-29T01:54:26.303Z,56.13
2019-03-29T01:55:26.313Z,55.75
2019-03-29T01:56:26.323Z,55.27
2019-03-29T01:57:26.333Z,55.37
2019-03-29T01:58:26.336Z,55.27
2019-03-29T01:59:26.342Z,55.08
2019-03-29T02:00:26.352Z,54.71
2019-03-29T02:01:26.361Z,54.14
2019-03-29T02:02:26.371Z,53.95
2019-03-29T02:03:26.378Z,54.23
2019-03-29T02:04:26.387Z,54.23
2019-03-29T02:05:27.699Z,54.14
2019-03-29T02:06:26.402Z,53.57
2019-03-29T02:07:26.415Z,52.44
2019-03-29T02:08:35.646Z,51.87
2019-03-29T02:09:26.426Z,51.39
2019-03-29T02:10:26.436Z,51.49
2019-03-29T02:11:26.440Z,52.62
2019-03-29T02:12:26.451Z,52.62
2019-03-29T02:13:26.456Z,52.62
2019-03-29T02:14:26.464Z,52.15
2019-03-29T02:15:26.473Z,52.72
2019-03-29T02:16:26.481Z,52.25
2019-03-29T02:17:26.491Z,52.72
2019-03-29T02:18:26.501Z,52.62
2019-03-29T02:19:26.505Z,53.00
2019-03-29T02:20:26.515Z,52.81
2019-03-29T02:21:26.524Z,53.09
2019-03-29T02:22:26.547Z,52.81
2019-03-29T02:23:26.541Z,51.58
2019-03-29T02:24:26.551Z,51.11
2019-03-29T02:25:26.557Z,50.92
2019-03-29T02:26:26.566Z,51.01
2019-03-29T02:27:27.201Z,51.11
2019-03-29T02:28:26.581Z,51.11
2019-03-29T02:29:26.587Z,50.92
2019-03-29T02:30:26.611Z,49.88
2019-03-29T02:31:28.815Z,49.88
2019-03-29T02:32:26.609Z,50.92
2019-03-29T02:33:26.618Z,51.20
2019-03-29T02:34:26.626Z,51.39
2019-03-29T02:35:26.635Z,51.77
2019-03-29T02:36:26.644Z,51.39
2019-03-29T02:37:26.661Z,52.34
2019-03-29T02:38:26.661Z,52.15
2019-03-29T02:39:27.059Z,52.15
2019-03-29T02:40:26.672Z,52.25
2019-03-29T02:41:26.685Z,52.44
2019-03-29T02:42:26.707Z,52.44
2019-03-29T02:43:26.701Z,52.06
2019-03-29T02:44:26.709Z,52.15
2019-03-29T02:45:26.718Z,52.06
2019-03-29T02:46:26.743Z,51.96
2019-03-29T02:47:26.741Z,52.25
2019-03-29T02:48:26.759Z,52.15
2019-03-29T02:49:26.760Z,52.72
2019-03-29T02:50:26.751Z,52.72
2019-03-29T02:51:26.760Z,52.72
2019-03-29T02:52:26.769Z,52.53
2019-03-29T02:53:26.777Z,52.44
2019-03-29T02:54:26.787Z,52.34
2019-03-29T02:55:26.796Z,52.81
2019-03-29T02:56:26.800Z,52.62
2019-03-29T02:57:26.819Z,52.44
2019-03-29T02:58:26.823Z,52.34
2019-03-29T02:59:26.826Z,52.34
2019-03-29T03:00:26.830Z,52.72
2019-03-29T03:01:26.851Z,52.34
2019-03-29T03:02:26.962Z,52.53
2019-03-29T03:03:26.865Z,52.53
2019-03-29T03:04:26.868Z,52.81
2019-03-29T03:05:26.873Z,52.62
2019-03-29T03:06:26.880Z,52.44
2019-03-29T03:07:26.887Z,52.44
2019-03-29T03:08:26.894Z,52.53
2019-03-29T03:09:26.905Z,52.62
2019-03-29T03:10:26.915Z,52.62
2019-03-29T03:11:26.919Z,53.09
2019-03-29T03:12:26.926Z,53.28
2019-03-29T03:13:26.937Z,53.66
2019-03-29T03:14:26.939Z,53.47
2019-03-29T03:15:26.953Z,53.28
2019-03-29T03:16:26.982Z,53.28
2019-03-29T03:17:26.971Z,53.47
2019-03-29T03:18:26.974Z,53.28
2019-03-29T03:19:26.980Z,53.19
2019-03-29T03:20:26.988Z,53.57
2019-03-29T03:21:26.998Z,52.91
2019-03-29T03:22:27.006Z,53.19
2019-03-29T03:23:27.012Z,53.09
2019-03-29T03:24:27.023Z,52.91
2019-03-29T03:25:27.031Z,52.34
2019-03-29T03:26:27.037Z,52.81
2019-03-29T03:27:27.049Z,53.36
2019-03-29T03:28:27.049Z,53.28
2019-03-29T03:29:27.056Z,53.47
2019-03-29T03:30:27.132Z,53.09
2019-03-29T03:31:27.078Z,53.19
2019-03-29T03:32:27.086Z,53.19
2019-03-29T03:33:27.090Z,53.19
2019-03-29T03:34:27.108Z,53.85
2019-03-29T03:35:27.108Z,53.66
2019-03-29T03:36:27.121Z,53.85
2019-03-29T03:37:27.136Z,53.45
2019-03-29T03:38:27.128Z,53.85
2019-03-29T03:39:31.929Z,53.83
2019-03-29T03:40:27.145Z,53.19
2019-03-29T03:41:27.153Z,53.45
2019-03-29T03:42:27.166Z,52.60
2019-03-29T03:43:27.175Z,52.34
2019-03-29T03:44:27.193Z,51.93
2019-03-29T03:45:27.184Z,52.22
2019-03-29T03:46:27.197Z,52.22
2019-03-29T03:47:27.201Z,52.22
2019-03-29T03:48:27.262Z,52.41
2019-03-29T03:49:27.218Z,52.69
2019-03-29T03:50:27.222Z,52.41
2019-03-29T03:51:27.230Z,52.50
2019-03-29T03:52:27.237Z,52.69
2019-03-29T03:53:27.254Z,52.60
2019-03-29T03:54:27.252Z,52.79
2019-03-29T03:55:27.362Z,52.69
2019-03-29T03:56:27.273Z,52.60
2019-03-29T03:57:27.281Z,52.50
2019-03-29T03:58:27.284Z,52.69
2019-03-29T03:59:27.299Z,52.50
2019-03-29T04:00:27.308Z,52.60
2019-03-29T04:01:27.310Z,52.60
2019-03-29T04:02:27.325Z,53.17
2019-03-29T04:03:27.329Z,52.79
2019-03-29T04:04:27.334Z,52.60
2019-03-29T04:05:27.342Z,52.60
2019-03-29T04:06:27.358Z,52.69
2019-03-29T04:07:27.363Z,52.60
2019-03-29T04:08:27.363Z,52.79
2019-03-29T04:09:27.373Z,52.31
2019-03-29T04:10:27.381Z,52.31
2019-03-29T04:11:27.387Z,52.60
2019-03-29T04:12:27.395Z,52.50
2019-03-29T04:13:27.410Z,52.41
2019-03-29T04:14:27.406Z,52.50
2019-03-29T04:15:27.421Z,52.60
2019-03-29T04:16:27.434Z,53.55
2019-03-29T04:17:27.431Z,53.55
2019-03-29T04:18:27.447Z,53.26
2019-03-29T04:19:27.457Z,53.26
2019-03-29T04:20:27.455Z,53.17
2019-03-29T04:21:27.465Z,53.83
2019-03-29T04:22:27.473Z,53.92
2019-03-29T04:23:27.481Z,53.83
2019-03-29T04:24:27.485Z,53.83
2019-03-29T04:25:27.491Z,53.92
2019-03-29T04:26:27.503Z,54.02
2019-03-29T04:27:27.509Z,54.11
2019-03-29T04:28:27.517Z,54.39
2019-03-29T04:29:27.524Z,54.58
2019-03-29T04:30:27.537Z,54.49
2019-03-29T04:31:27.546Z,54.68
2019-03-29T04:32:27.549Z,54.58
2019-03-29T04:33:27.555Z,54.77
2019-03-29T04:34:27.561Z,54.11
2019-03-29T04:35:27.566Z,52.79
2019-03-29T04:36:27.575Z,53.45
2019-03-29T04:37:27.588Z,52.50
2019-03-29T04:38:27.593Z,52.03
2019-03-29T04:39:27.596Z,52.50
2019-03-29T04:40:27.605Z,52.50
2019-03-29T04:41:27.616Z,52.50
2019-03-29T04:42:27.626Z,52.22
2019-03-29T04:43:27.630Z,51.84
2019-03-29T04:44:27.635Z,51.84
2019-03-29T04:45:27.645Z,51.18
2019-03-29T04:46:27.650Z,51.18
2019-03-29T04:47:27.661Z,52.31
2019-03-29T04:48:27.670Z,52.69
2019-03-29T04:49:27.670Z,52.50
2019-03-29T04:50:27.678Z,52.50
2019-03-29T04:51:27.692Z,52.98
2019-03-29T04:52:27.692Z,53.26
2019-03-29T04:53:27.702Z,53.64
2019-03-29T04:54:27.711Z,53.17
2019-03-29T04:55:27.716Z,53.26
2019-03-29T04:56:27.725Z,53.74
2019-03-29T04:57:27.735Z,54.02
2019-03-29T04:58:27.749Z,53.74
2019-03-29T04:59:27.746Z,53.74
2019-03-29T05:00:27.753Z,53.36
2019-03-29T05:01:27.760Z,53.64
2019-03-29T05:02:27.769Z,52.88
2019-03-29T05:03:27.774Z,52.79
2019-03-29T05:04:27.785Z,53.17
2019-03-29T05:05:27.790Z,53.55
2019-03-29T05:06:27.803Z,52.69
2019-03-29T05:07:27.814Z,52.41
2019-03-29T05:08:27.810Z,52.69
2019-03-29T05:09:27.819Z,53.64
2019-03-29T05:10:27.831Z,53.55
2019-03-29T05:11:27.831Z,53.55
2019-03-29T05:12:27.843Z,53.17
2019-03-29T05:13:27.919Z,53.55
2019-03-29T05:14:27.855Z,52.60
2019-03-29T05:15:27.865Z,52.50
2019-03-29T05:16:27.869Z,53.07
2019-03-29T05:17:27.883Z,52.60
2019-03-29T05:18:27.887Z,52.41
2019-03-29T05:19:27.894Z,52.60
2019-03-29T05:20:27.905Z,52.79
2019-03-29T05:21:27.905Z,52.60
2019-03-29T05:22:27.914Z,52.41
2019-03-29T05:23:27.923Z,52.69
2019-03-29T05:24:27.929Z,52.98
2019-03-29T05:25:27.941Z,53.07
2019-03-29T05:26:27.946Z,52.98
2019-03-29T05:27:27.954Z,52.88
2019-03-29T05:28:27.972Z,53.17
2019-03-29T05:29:27.970Z,52.12
2019-03-29T05:30:27.974Z,51.56
2019-03-29T05:31:27.980Z,51.75
2019-03-29T05:32:28.033Z,51.65
2019-03-29T05:33:27.998Z,51.75
2019-03-29T05:34:28.063Z,51.18
2019-03-29T05:35:28.018Z,51.46
2019-03-29T05:36:28.015Z,51.37
2019-03-29T05:37:28.028Z,52.22
2019-03-29T05:38:28.031Z,52.22
2019-03-29T05:39:28.043Z,52.12
2019-03-29T05:40:34.772Z,52.50
2019-03-29T05:41:28.055Z,52.50
2019-03-29T05:42:28.062Z,52.79
2019-03-29T05:43:28.072Z,52.41
2019-03-29T05:44:28.078Z,52.69
2019-03-29T05:45:28.136Z,52.60
2019-03-29T05:46:28.094Z,52.41
2019-03-29T05:47:28.102Z,51.56
2019-03-29T05:48:28.107Z,51.84
2019-03-29T05:49:28.115Z,51.09
2019-03-29T05:50:28.121Z,51.09
2019-03-29T05:51:28.132Z,51.75
2019-03-29T05:52:28.134Z,51.65
2019-03-29T05:53:28.146Z,51.65
2019-03-29T05:54:28.153Z,51.46
2019-03-29T05:55:32.913Z,51.28
2019-03-29T05:56:28.165Z,51.56
2019-03-29T05:57:28.172Z,51.93
2019-03-29T05:58:28.181Z,49.29
2019-03-29T05:59:28.187Z,48.06
2019-03-29T06:00:28.196Z,47.87
2019-03-29T06:01:28.204Z,47.68
2019-03-29T06:02:28.211Z,47.49
2019-03-29T06:03:28.260Z,48.25
2019-03-29T06:04:28.227Z,48.15
2019-03-29T06:05:28.233Z,47.68
2019-03-29T06:06:28.250Z,47.39
2019-03-29T06:07:28.246Z,46.92
2019-03-29T06:08:28.255Z,46.64
2019-03-29T06:09:28.267Z,46.64
2019-03-29T06:10:28.270Z,46.83
2019-03-29T06:11:28.276Z,47.11
2019-03-29T06:12:28.290Z,47.02
2019-03-29T06:13:28.294Z,46.45
2019-03-29T06:14:28.303Z,46.64
2019-03-29T06:15:28.305Z,46.73
2019-03-29T06:16:38.289Z,46.64
2019-03-29T06:17:28.321Z,46.45
2019-03-29T06:18:28.334Z,46.45
2019-03-29T06:19:28.336Z,45.60
2019-03-29T06:20:28.347Z,45.31
2019-03-29T06:21:28.357Z,45.41
2019-03-29T06:22:28.365Z,45.69
2019-03-29T06:23:28.368Z,45.69
2019-03-29T06:24:28.376Z,45.60
2019-03-29T06:25:28.385Z,45.22
2019-03-29T06:26:28.389Z,45.72
2019-03-29T06:27:28.397Z,45.88
2019-03-29T06:28:29.972Z,45.98
2019-03-29T06:29:28.416Z,45.79
2019-03-29T06:30:28.422Z,46.47
2019-03-29T06:31:28.429Z,46.92
2019-03-29T06:32:28.437Z,46.75
2019-03-29T06:33:28.447Z,47.30
2019-03-29T06:34:28.454Z,47.70
2019-03-29T06:35:28.459Z,47.89
2019-03-29T06:36:28.468Z,47.51
2019-03-29T06:37:28.476Z,47.49
2019-03-29T06:38:28.478Z,47.99
2019-03-29T06:39:28.488Z,47.32
2019-03-29T06:40:28.496Z,47.32
2019-03-29T06:41:28.501Z,47.51
2019-03-29T06:42:28.510Z,47.32
2019-03-29T06:43:28.519Z,47.13
2019-03-29T06:44:28.528Z,47.61
2019-03-29T06:45:28.535Z,47.42
2019-03-29T06:46:28.539Z,47.42
2019-03-29T06:47:28.553Z,47.42
2019-03-29T06:48:28.554Z,47.51
2019-03-29T06:49:28.565Z,47.61
2019-03-29T06:50:28.573Z,49.60
2019-03-29T06:51:28.581Z,50.26
2019-03-29T06:52:28.589Z,48.01
2019-03-29T06:53:28.599Z,47.91
2019-03-29T06:54:28.603Z,48.68
2019-03-29T06:55:28.614Z,48.29
2019-03-29T06:56:28.617Z,48.20
2019-03-29T06:57:28.635Z,46.97
2019-03-29T06:58:28.635Z,46.31
2019-03-29T06:59:28.646Z,45.74
2019-03-29T07:00:28.651Z,45.17
2019-03-29T07:01:28.656Z,43.84
2019-03-29T07:02:28.666Z,45.19
2019-03-29T07:03:28.672Z,44.51
2019-03-29T07:04:28.682Z,43.39
2019-03-29T07:05:28.691Z,43.68
2019-03-29T07:06:30.555Z,43.01
2019-03-29T07:07:28.706Z,43.18
2019-03-29T07:08:28.710Z,43.68
2019-03-29T07:09:28.717Z,44.06
2019-03-29T07:10:28.726Z,43.20
2019-03-29T07:11:28.732Z,42.44
2019-03-29T07:12:28.743Z,42.44
2019-03-29T07:13:28.749Z,43.01
2019-03-29T07:14:28.757Z,44.43
2019-03-29T07:15:28.765Z,44.62
2019-03-29T07:16:28.774Z,44.53
2019-03-29T07:17:28.785Z,44.06
2019-03-29T07:18:28.789Z,43.01
2019-03-29T07:19:28.797Z,42.92
2019-03-29T07:20:28.804Z,42.44
2019-03-29T07:21:28.813Z,42.25
2019-03-29T07:22:28.821Z,41.88
2019-03-29T07:23:28.829Z,42.54
2019-03-29T07:24:28.834Z,42.16
2019-03-29T07:25:28.845Z,41.50
2019-03-29T07:26:28.855Z,43.96
2019-03-29T07:27:28.860Z,44.53
2019-03-29T07:28:28.866Z,42.25
2019-03-29T07:29:28.879Z,42.07
2019-03-29T07:30:28.885Z,41.31
2019-03-29T07:31:28.891Z,40.38
2019-03-29T07:32:28.903Z,41.71
2019-03-29T07:33:28.913Z,42.85
2019-03-29T07:34:28.918Z,41.33
2019-03-29T07:35:28.924Z,40.28
2019-03-29T07:36:28.933Z,40.09
2019-03-29T07:37:28.942Z,40.57
2019-03-29T07:38:28.952Z,41.61
2019-03-29T07:39:28.958Z,41.33
2019-03-29T07:40:28.967Z,41.14
2019-03-29T07:41:32.038Z,40.76
2019-03-29T07:42:28.980Z,41.14
2019-03-29T07:43:28.992Z,42.39
2019-03-29T07:44:28.997Z,41.82
2019-03-29T07:45:29.003Z,41.92
2019-03-29T07:46:29.015Z,41.16
2019-03-29T07:47:29.022Z,41.54
2019-03-29T07:48:29.034Z,41.06
2019-03-29T07:49:29.036Z,40.31
2019-03-29T07:50:29.053Z,40.12
2019-03-29T07:51:29.056Z,39.64
2019-03-29T07:52:29.067Z,39.43
2019-03-29T07:53:29.070Z,38.77
2019-03-29T07:54:29.078Z,39.34
2019-03-29T07:55:29.089Z,39.34
2019-03-29T07:56:29.093Z,39.72
2019-03-29T07:57:29.105Z,40.57
2019-03-29T07:58:29.111Z,41.35
2019-03-29T07:59:29.123Z,40.97
2019-03-29T08:00:29.127Z,41.54
2019-03-29T08:01:32.367Z,39.92
2019-03-29T08:02:29.259Z,37.74
2019-03-29T08:03:29.158Z,37.74
2019-03-29T08:04:29.164Z,39.07
2019-03-29T08:05:29.173Z,39.07
2019-03-29T08:06:29.183Z,38.31
2019-03-29T08:07:31.456Z,37.65
2019-03-29T08:08:32.256Z,37.84
2019-03-29T08:09:29.205Z,37.92
2019-03-29T08:10:31.413Z,39.07
2019-03-29T08:11:29.225Z,39.07
2019-03-29T08:12:29.246Z,39.54
2019-03-29T08:13:29.243Z,40.80
2019-03-29T08:14:29.246Z,40.52
2019-03-29T08:15:29.258Z,39.18
2019-03-29T08:16:29.269Z,37.27
2019-03-29T08:17:29.367Z,37.74
2019-03-29T08:18:29.284Z,37.46
2019-03-29T08:19:29.288Z,39.07
2019-03-29T08:20:40.645Z,40.31
2019-03-29T08:21:29.312Z,40.33
2019-03-29T08:22:29.326Z,40.70
2019-03-29T08:23:29.325Z,39.28
2019-03-29T08:24:29.388Z,38.43
2019-03-29T08:25:29.346Z,38.33
2019-03-29T08:26:29.355Z,38.43
2019-03-29T08:27:29.361Z,38.53
2019-03-29T08:28:29.369Z,38.22
2019-03-29T08:29:31.365Z,39.47
2019-03-29T08:30:29.386Z,40.80
2019-03-29T08:31:29.398Z,40.42
2019-03-29T08:32:29.481Z,40.23
2019-03-29T08:33:29.413Z,40.82
2019-03-29T08:34:29.424Z,40.44
2019-03-29T08:35:29.434Z,40.53
2019-03-29T08:36:29.445Z,39.11
2019-03-29T08:37:29.448Z,38.82
2019-03-29T08:38:29.462Z,39.21
2019-03-29T08:39:29.470Z,39.30
2019-03-29T08:40:29.477Z,39.21
2019-03-29T08:41:29.488Z,38.35
2019-03-29T08:42:29.493Z,39.30
2019-03-29T08:43:29.507Z,38.82
2019-03-29T08:44:29.517Z,38.85
2019-03-29T08:45:29.525Z,37.78
2019-03-29T08:46:29.531Z,37.59
2019-03-29T08:47:29.610Z,37.86
2019-03-29T08:48:29.550Z,39.11
2019-03-29T08:49:29.562Z,39.87
2019-03-29T08:50:29.567Z,39.68
2019-03-29T08:51:29.577Z,38.35
2019-03-29T08:52:29.588Z,37.12
2019-03-29T08:53:29.602Z,37.78
2019-03-29T08:54:29.613Z,36.53
2019-03-29T08:55:29.617Z,37.88
2019-03-29T08:56:29.626Z,39.11
2019-03-29T08:57:29.636Z,37.21
2019-03-29T08:58:29.646Z,36.55
2019-03-29T08:59:29.654Z,37.88
2019-03-29T09:00:29.665Z,37.88
2019-03-29T09:01:29.674Z,36.93
2019-03-29T09:02:29.687Z,38.18
2019-03-29T09:03:29.692Z,36.83
2019-03-29T09:04:29.703Z,36.55
2019-03-29T09:05:29.718Z,38.07
2019-03-29T09:06:30.345Z,37.90
2019-03-29T09:07:43.601Z,37.63
2019-03-29T09:08:29.740Z,36.00
2019-03-29T09:09:29.757Z,35.33
2019-03-29T09:10:29.768Z,35.98
2019-03-29T09:11:29.777Z,36.26
2019-03-29T09:12:29.788Z,35.69
2019-03-29T09:13:29.796Z,36.17
2019-03-29T09:14:31.388Z,37.30
2019-03-29T09:15:29.815Z,38.46
2019-03-29T09:16:29.826Z,37.71
2019-03-29T09:17:29.830Z,36.76
2019-03-29T09:18:29.840Z,36.19
2019-03-29T09:19:29.853Z,36.09
2019-03-29T09:20:29.867Z,37.71
2019-03-29T09:21:29.874Z,38.12
2019-03-29T09:22:29.881Z,35.84
2019-03-29T09:23:30.373Z,35.25
2019-03-29T09:24:29.899Z,35.25
2019-03-29T09:25:29.913Z,35.16
2019-03-29T09:26:29.918Z,35.54
2019-03-29T09:27:32.022Z,34.95
2019-03-29T09:28:32.731Z,34.67
2019-03-29T09:29:29.956Z,36.11
2019-03-29T09:30:29.965Z,34.67
2019-03-29T09:31:29.969Z,35.73
2019-03-29T09:32:29.982Z,34.69
2019-03-29T09:33:30.010Z,35.16
2019-03-29T09:34:30.004Z,34.48
2019-03-29T09:35:30.012Z,35.25
2019-03-29T09:36:30.023Z,34.09
2019-03-29T09:37:30.037Z,34.09
2019-03-29T09:38:30.039Z,33.72
2019-03-29T09:39:30.056Z,34.78
2019-03-29T09:40:30.066Z,33.92
2019-03-29T09:41:30.071Z,33.64
2019-03-29T09:42:30.493Z,34.69
2019-03-29T09:43:30.094Z,33.92
2019-03-29T09:44:30.104Z,36.13
2019-03-29T09:45:30.111Z,35.17
2019-03-29T09:46:30.125Z,35.17
2019-03-29T09:47:37.012Z,35.10
2019-03-29T09:48:30.148Z,34.91
2019-03-29T09:49:30.158Z,33.97
2019-03-29T09:50:30.172Z,33.97
2019-03-29T09:51:30.186Z,33.88
2019-03-29T09:52:30.187Z,32.53
2019-03-29T09:53:30.198Z,32.72
2019-03-29T09:54:30.212Z,33.86
2019-03-29T09:55:30.221Z,33.67
2019-03-29T09:56:38.495Z,32.43
2019-03-29T09:57:37.452Z,33.20
2019-03-29T09:58:30.259Z,33.29
2019-03-29T09:59:30.298Z,33.20
2019-03-29T10:00:30.275Z,32.82
2019-03-29T10:01:30.420Z,33.69
2019-03-29T10:02:30.298Z,33.29
2019-03-29T10:03:30.316Z,33.69
2019-03-29T10:04:30.332Z,32.91
2019-03-29T10:05:31.550Z,34.15
2019-03-29T10:06:30.343Z,33.59
2019-03-29T10:07:30.355Z,32.45
2019-03-29T10:08:30.369Z,33.12
2019-03-29T10:09:30.377Z,32.35
2019-03-29T10:10:30.390Z,31.60
2019-03-29T10:11:30.404Z,31.58
2019-03-29T10:12:42.762Z,33.69
2019-03-29T10:13:30.423Z,33.69
2019-03-29T10:14:33.289Z,32.95
2019-03-29T10:15:30.462Z,32.95
2019-03-29T10:16:30.464Z,32.17
2019-03-29T10:17:30.481Z,30.34
2019-03-29T10:18:30.483Z,30.73
2019-03-29T10:19:30.495Z,32.24
2019-03-29T10:20:30.508Z,30.90
2019-03-29T10:21:33.852Z,31.28
2019-03-29T10:22:30.538Z,31.58
2019-03-29T10:23:30.543Z,33.78
2019-03-29T10:24:30.558Z,31.98
2019-03-29T10:25:30.569Z,31.31
2019-03-29T10:26:30.580Z,30.91
2019-03-29T10:27:30.591Z,30.82
2019-03-29T10:28:30.609Z,30.34
2019-03-29T10:29:30.621Z,30.17
2019-03-29T10:30:30.627Z,31.42
2019-03-29T10:31:32.362Z,30.76
2019-03-29T10:32:30.653Z,28.38
2019-03-29T10:33:30.665Z,27.99
2019-03-29T10:34:30.680Z,28.77
2019-03-29T10:35:30.689Z,27.80
2019-03-29T10:36:30.700Z,27.42
2019-03-29T10:37:30.713Z,26.66
2019-03-29T10:38:30.726Z,27.62
2019-03-29T10:39:30.734Z,28.66
2019-03-29T10:40:30.753Z,29.12
2019-03-29T10:41:34.479Z,29.99
2019-03-29T10:42:30.778Z,29.04
2019-03-29T10:43:30.787Z,29.04
2019-03-29T10:44:30.801Z,29.33
2019-03-29T10:45:30.811Z,29.50
2019-03-29T10:46:30.830Z,29.30
2019-03-29T10:47:43.333Z,31.40
2019-03-29T10:48:30.856Z,31.40
2019-03-29T10:49:30.865Z,30.93
2019-03-29T10:50:30.875Z,31.29
2019-03-29T10:51:30.888Z,31.37
2019-03-29T10:52:30.898Z,33.10
2019-03-29T10:53:30.916Z,32.06
2019-03-29T10:54:30.926Z,32.26
2019-03-29T10:55:30.938Z,32.64
2019-03-29T10:56:34.242Z,31.40
2019-03-29T10:57:30.963Z,30.36
2019-03-29T10:58:30.992Z,30.07
2019-03-29T10:59:30.988Z,31.32
2019-03-29T11:00:31.003Z,30.18
2019-03-29T11:01:31.013Z,29.11
2019-03-29T11:02:31.025Z,30.65
2019-03-29T11:03:31.054Z,30.36
2019-03-29T11:04:32.101Z,30.17
2019-03-29T11:05:31.069Z,28.93
2019-03-29T11:06:31.081Z,27.48
2019-03-29T11:07:31.087Z,27.86
2019-03-29T11:08:31.106Z,29.58
2019-03-29T11:09:31.114Z,29.88
2019-03-29T11:10:31.126Z,27.50
2019-03-29T11:11:31.143Z,29.14
2019-03-29T11:12:31.154Z,31.74
2019-03-29T11:13:31.169Z,30.42
2019-03-29T11:14:31.180Z,27.75
2019-03-29T11:15:31.195Z,26.29
2019-03-29T11:16:31.200Z,27.83
2019-03-29T11:17:31.216Z,26.59
2019-03-29T11:18:31.228Z,26.50
2019-03-29T11:19:31.245Z,27.45
2019-03-29T11:20:31.259Z,26.59
2019-03-29T11:21:31.267Z,28.02
2019-03-29T11:22:31.285Z,27.72
2019-03-29T11:23:31.296Z,31.47
2019-03-29T11:24:31.309Z,28.69
2019-03-29T11:25:31.321Z,25.42
2019-03-29T11:26:31.341Z,26.85
2019-03-29T11:27:31.350Z,27.90
2019-03-29T11:28:31.366Z,27.80
2019-03-29T11:29:31.376Z,26.76
2019-03-29T11:30:41.981Z,26.76
2019-03-29T11:31:31.405Z,28.01
2019-03-29T11:32:31.417Z,28.12
2019-03-29T11:33:31.432Z,25.83
2019-03-29T11:34:31.442Z,24.60
2019-03-29T11:35:31.455Z,23.64
2019-03-29T11:36:31.470Z,24.59
2019-03-29T11:37:31.489Z,25.82
2019-03-29T11:38:31.500Z,26.97
2019-03-29T11:39:31.510Z,28.03
2019-03-29T11:40:31.526Z,26.03
2019-03-29T11:41:31.539Z,25.83
2019-03-29T11:42:31.552Z,26.29
2019-03-29T11:43:31.570Z,24.58
2019-03-29T11:44:31.581Z,23.89
2019-03-29T11:45:31.604Z,25.99
2019-03-29T11:46:31.611Z,27.04
2019-03-29T11:47:31.622Z,28.58
2019-03-29T11:48:31.641Z,27.91
2019-03-29T11:49:31.650Z,26.28
2019-03-29T11:50:31.670Z,25.89
2019-03-29T11:51:31.683Z,28.85
2019-03-29T11:52:33.882Z,29.26
2019-03-29T11:53:31.709Z,25.90
2019-03-29T11:54:31.723Z,26.77
2019-03-29T11:55:31.739Z,26.67
2019-03-29T11:56:31.751Z,25.43
2019-03-29T11:57:31.761Z,26.58
2019-03-29T11:58:31.779Z,27.84
2019-03-29T11:59:31.791Z,27.56
2019-03-29T12:00:31.805Z,26.31
2019-03-29T12:01:31.817Z,27.55
2019-03-29T12:02:31.934Z,27.06
2019-03-29T12:03:31.849Z,26.50
2019-03-29T12:04:31.860Z,26.29
2019-03-29T12:05:31.879Z,26.58
2019-03-29T12:06:31.889Z,27.07
2019-03-29T12:07:31.902Z,26.67
2019-03-29T12:08:31.923Z,26.77
2019-03-29T12:09:31.937Z,28.31
2019-03-29T12:10:31.945Z,27.92
2019-03-29T12:11:31.963Z,27.36
2019-03-29T12:12:31.983Z,25.99
2019-03-29T12:13:40.916Z,27.72
2019-03-29T12:14:32.002Z,26.77
2019-03-29T12:15:32.028Z,26.67
2019-03-29T12:16:32.034Z,27.64
2019-03-29T12:17:32.045Z,26.77
2019-03-29T12:18:32.057Z,27.64
2019-03-29T12:19:32.072Z,25.54
2019-03-29T12:20:32.088Z,25.45
2019-03-29T12:21:32.105Z,24.85
2019-03-29T12:22:32.115Z,26.20
2019-03-29T12:23:32.131Z,25.15
2019-03-29T12:24:32.142Z,26.58
2019-03-29T12:25:32.168Z,26.02
2019-03-29T12:26:32.171Z,24.48
2019-03-29T12:27:32.191Z,25.26
2019-03-29T12:28:32.201Z,24.59
2019-03-29T12:29:32.244Z,24.10
2019-03-29T12:30:32.558Z,25.54
2019-03-29T12:31:32.244Z,25.07
2019-03-29T12:32:32.340Z,24.59
2019-03-29T12:33:32.279Z,26.21
2019-03-29T12:34:32.285Z,26.40
2019-03-29T12:35:32.301Z,25.45
2019-03-29T12:36:32.311Z,24.87
2019-03-29T12:37:32.330Z,24.67
2019-03-29T12:38:32.343Z,25.16
2019-03-29T12:39:32.361Z,24.49
2019-03-29T12:40:32.373Z,23.64
2019-03-29T12:41:32.381Z,24.97
2019-03-29T12:42:32.399Z,25.35
2019-03-29T12:43:32.410Z,23.92
2019-03-29T12:44:32.428Z,24.32
2019-03-29T12:45:32.442Z,24.59
2019-03-29T12:46:32.609Z,24.79
2019-03-29T12:47:32.467Z,25.94
2019-03-29T12:48:32.482Z,26.15
2019-03-29T12:49:32.501Z,22.79
2019-03-29T12:50:32.509Z,22.68
2019-03-29T12:51:32.525Z,23.24
2019-03-29T12:52:32.538Z,23.07